Jumpertown, Mississippi
Current Conditions -  °F | °C
As of 2:55 AM on Friday 31 Oct 2014 (Local Time) from KCRX Reporting Station
Broken Clouds Broken Clouds  
Wind Chill: 10°   Ceiling: 5500
Heat Index: 10°   Visibility: 8mi
Dew Point:   Wind: 0mph
Humidity: 94%   Direction: NA
Pressure: 29.99"   Gusts: NA
Location:  34.6741°N, 88.5234°W
Report Text: KCRX 310755Z AUTO 00000KT 8SM BKN055 BKN070 BKN080 10/09 A2999 RMK AO2
Loading
Personal Weather Stations






























Interactive Weather Map
Tropical Storm Tracking
New forecast layout! Learn more

10-Day Weather Forecast

Advertisements
Track Severe Weather on mobile